Time;durP1;ratioP1;P1;durP2;ratioP2;P2;SDS_P1;SDS_P2;PMS_P1;PMS_P2;Temp;Humidity;BMP_temperature;BMP_pressure;BME280_temperature;BME280_humidity;BME280_pressure;Samples;Min_cycle;Max_cycle;Signal;HPM_P1;HPM_P2
2022/12/28 00:01:22;;;;;;;;;;;;;;;13.36;65.50;101929.47;7402205;19;1373;-64
2022/12/28 00:03:51;;;;;;;;;;;;;;;13.32;65.56;101931.41;7404925;19;1005;-64
2022/12/28 00:06:20;;;;;;;;;;;;;;;13.35;65.54;101944.56;7404728;19;997;-66
2022/12/28 00:08:48;;;;;;;;;;;;;;;13.37;65.76;101952.44;7404613;19;1011;-65
2022/12/28 00:11:17;;;;;;;;;;;;;;;13.38;65.54;101952.38;7404162;19;1020;-65
2022/12/28 00:13:46;;;;;;;;;;;;;;;13.35;65.28;101949.88;7403113;19;1842;-66
2022/12/28 00:16:19;;;;;;;;;;;;;;;13.36;65.28;101978.16;7404473;19;984;-64
2022/12/28 00:18:50;;;;;;;;;;;;;;;13.29;65.65;101984.63;7404468;19;986;-65
2022/12/28 00:21:19;;;;;;;;;;;;;;;13.33;65.78;101967.69;7404185;19;988;-65
2022/12/28 00:23:50;;;;;;;;;;;;;;;13.36;65.42;101988.78;7403786;19;1015;-64
2022/12/28 00:26:18;;;;;;;;;;;;;;;13.38;65.48;101983.41;7404085;19;987;-64
2022/12/28 00:28:47;;;;;;;;;;;;;;;13.34;65.66;101990.66;7404122;19;963;-66
2022/12/28 00:31:15;;;;;;;;;;;;;;;13.36;65.67;101979.97;7403356;19;1067;-65
2022/12/28 00:33:44;;;;;;;;;;;;;;;13.33;65.48;101986.28;7403018;19;1859;-64
2022/12/28 00:36:15;;;;;;;;;;;;;;;13.26;65.79;101969.69;7403293;19;1031;-64
2022/12/28 00:38:44;;;;;;;;;;;;;;;13.34;65.76;101964.06;7403743;19;1009;-65
2022/12/28 00:41:13;;;;;;;;;;;;;;;13.35;65.78;101965.81;7403271;19;949;-64
2022/12/28 00:43:41;;;;;;;;;;;;;;;13.36;65.48;101967.53;7401334;19;960;-64
2022/12/28 00:46:10;;;;;;;;;;;;;;;13.38;65.31;101981.59;7402777;19;1079;-65
2022/12/28 00:48:38;;;;;;;;;;;;;;;13.28;65.81;101985.56;7402968;19;790;-66
2022/12/28 00:51:08;;;;;;;;;;;;;;;13.26;65.62;101977.66;7402846;19;1063;-65
2022/12/28 00:53:39;;;;;;;;;;;;;;;13.33;65.83;101995.09;7401960;19;1863;-65
2022/12/28 00:56:08;;;;;;;;;;;;;;;13.33;65.85;101973.00;7401220;19;1011;-65
2022/12/28 00:58:36;;;;;;;;;;;;;;;13.34;65.42;101993.31;7402563;19;1056;-66
2022/12/28 01:01:05;;;;;;;;;;;;;;;13.29;65.74;101997.91;7398174;19;1498;-65
2022/12/28 01:03:33;;;;;;;;;;;;;;;13.27;65.59;101973.22;7402813;19;958;-66
2022/12/28 01:06:06;;;;;;;;;;;;;;;13.28;66.04;101986.44;7402751;19;1009;-64
2022/12/28 01:08:34;;;;;;;;;;;;;;;13.30;65.76;101975.78;7402269;19;1004;-64
2022/12/28 01:11:07;;;;;;;;;;;;;;;13.33;65.60;101978.31;7402126;19;1283;-65
2022/12/28 01:13:35;;;;;;;;;;;;;;;13.37;65.40;101990.53;7402076;19;1849;-65
2022/12/28 01:16:11;;;;;;;;;;;;;;;13.34;65.57;101998.63;7402510;19;1005;-65
2022/12/28 01:18:39;;;;;;;;;;;;;;;13.42;65.47;102012.41;7402017;19;981;-64
2022/12/28 01:21:12;;;;;;;;;;;;;;;13.29;65.83;101990.84;7402305;19;964;-64
2022/12/28 01:23:40;;;;;;;;;;;;;;;13.28;65.57;101985.56;7402229;19;1006;-65
2022/12/28 01:26:11;;;;;;;;;;;;;;;13.32;65.73;102008.44;7402236;19;979;-66
2022/12/28 01:28:40;;;;;;;;;;;;;;;13.33;65.75;102004.88;7402110;19;1011;-66
2022/12/28 01:31:09;;;;;;;;;;;;;;;13.36;65.71;102010.03;7401658;19;1012;-64
2022/12/28 01:33:37;;;;;;;;;;;;;;;13.35;65.52;102029.56;7401626;19;1867;-64
2022/12/28 01:36:09;;;;;;;;;;;;;;;13.27;65.84;102021.03;7401818;19;980;-66
2022/12/28 01:38:37;;;;;;;;;;;;;;;13.29;65.69;102019.16;7401535;19;969;-66
2022/12/28 01:41:11;;;;;;;;;;;;;;;13.34;65.59;102027.84;7401910;19;993;-64
2022/12/28 01:43:43;;;;;;;;;;;;;;;13.33;65.60;102044.72;7401308;19;996;-65
2022/12/28 01:46:14;;;;;;;;;;;;;;;13.28;65.47;102031.59;7402038;19;988;-64
2022/12/28 01:48:47;;;;;;;;;;;;;;;13.31;65.61;102038.63;7401219;19;948;-65
2022/12/28 01:51:15;;;;;;;;;;;;;;;13.23;65.90;102036.25;7399702;19;1469;-64
2022/12/28 01:53:44;;;;;;;;;;;;;;;13.25;65.64;102042.38;7400929;19;1866;-64
2022/12/28 01:56:15;;;;;;;;;;;;;;;13.31;65.56;102038.63;7400350;19;1035;-64
2022/12/28 01:58:44;;;;;;;;;;;;;;;13.30;65.50;102036.88;7400878;19;1027;-65
2022/12/28 02:01:12;;;;;;;;;;;;;;;13.32;65.53;102042.97;7399950;19;1341;-64
2022/12/28 02:03:41;;;;;;;;;;;;;;;13.29;65.58;102035.09;7401192;19;935;-64
2022/12/28 02:06:11;;;;;;;;;;;;;;;13.22;65.80;102028.34;7403130;19;862;-65
2022/12/28 02:08:44;;;;;;;;;;;;;;;13.27;65.90;102051.13;7408379;19;1011;-65
2022/12/28 02:11:17;;;;;;;;;;;;;;;13.31;65.76;102035.97;7408496;19;949;-65
2022/12/28 02:13:46;;;;;;;;;;;;;;;13.32;65.50;102035.00;7407894;19;1853;-65
2022/12/28 02:16:14;;;;;;;;;;;;;;;13.28;65.60;102038.69;7408376;19;949;-66
2022/12/28 02:18:44;;;;;;;;;;;;;;;13.30;65.73;102066.09;7407991;19;917;-66
2022/12/28 02:21:26;;;;;;;;;;;;;;;13.26;65.93;102061.81;7408244;19;1001;-64
2022/12/28 02:24:01;;;;;;;;;;;;;;;13.27;65.53;102076.81;7407276;19;1071;-65
2022/12/28 02:26:45;;;;;;;;;;;;;;;13.30;65.78;102069.59;7408164;19;1160;-64
2022/12/28 02:29:25;;;;;;;;;;;;;;;13.28;65.61;102060.81;7408034;19;954;-64
2022/12/28 02:31:58;;;;;;;;;;;;;;;13.32;65.34;102067.75;7407513;19;1006;-65
2022/12/28 02:34:29;;;;;;;;;;;;;;;13.29;65.84;102075.88;7406492;19;1849;-64
2022/12/28 02:37:01;;;;;;;;;;;;;;;13.24;65.67;102077.81;7407662;19;1007;-66
2022/12/28 02:39:32;;;;;;;;;;;;;;;13.21;65.75;102064.69;7407702;19;1018;-65
2022/12/28 02:42:01;;;;;;;;;;;;;;;13.33;65.63;102071.28;7405736;19;942;-65
2022/12/28 02:50:07;;;;;;;;;;;;;;;13.21;65.67;102090.34;7407831;19;765;-65
2022/12/28 02:52:44;;;;;;;;;;;;;;;13.24;65.91;102080.47;7407214;19;950;-64
2022/12/28 02:58:12;;;;;;;;;;;;;;;13.26;65.60;102080.41;7407120;19;706;-64
2022/12/28 03:00:53;;;;;;;;;;;;;;;13.22;65.49;102076.16;7406068;19;1005;-65
2022/12/28 03:03:23;;;;;;;;;;;;;;;13.22;65.55;102092.09;7406924;19;1013;-64
2022/12/28 03:08:39;;;;;;;;;;;;;;;13.25;65.71;102102.56;7407206;19;789;-64
2022/12/28 03:11:11;;;;;;;;;;;;;;;13.28;65.66;102092.69;7406576;19;990;-66
2022/12/28 03:13:44;;;;;;;;;;;;;;;13.27;65.76;102100.72;7406056;19;1855;-65
2022/12/28 03:16:19;;;;;;;;;;;;;;;13.19;65.92;102081.59;7406405;19;984;-66
2022/12/28 03:32:22;;;;;;;;;;;;;;;13.21;65.60;102091.25;7406090;19;686;-64
2022/12/28 03:34:50;;;;;;;;;;;;;;;13.25;65.44;102107.88;7404590;19;1849;-65
2022/12/28 03:37:24;;;;;;;;;;;;;;;13.25;65.71;102102.56;7405905;19;930;-64
2022/12/28 03:39:55;;;;;;;;;;;;;;;13.22;65.38;102113.34;7405797;19;919;-66
2022/12/28 03:45:13;;;;;;;;;;;;;;;13.16;65.65;102111.81;7405637;19;761;-64
2022/12/28 03:47:46;;;;;;;;;;;;;;;13.24;65.57;102138.06;7405467;19;1002;-64
2022/12/28 03:50:15;;;;;;;;;;;;;;;13.23;65.37;102134.53;7404918;19;1812;-66
2022/12/28 03:52:44;;;;;;;;;;;;;;;13.27;65.61;102140.56;7405142;19;1011;-65
2022/12/28 03:55:12;;;;;;;;;;;;;;;13.20;65.64;102136.47;7403824;19;1855;-64
2022/12/28 03:57:40;;;;;;;;;;;;;;;13.19;65.89;102140.91;7405808;19;992;-64
2022/12/28 04:00:10;;;;;;;;;;;;;;;13.19;65.70;102140.91;7404559;19;798;-65
2022/12/28 04:02:39;;;;;;;;;;;;;;;13.23;65.50;102137.19;7402653;19;1417;-64
2022/12/28 04:05:11;;;;;;;;;;;;;;;13.22;65.50;102137.25;7404068;19;931;-64
2022/12/28 04:07:39;;;;;;;;;;;;;;;13.15;65.80;102147.28;7403848;19;974;-65
2022/12/28 04:10:08;;;;;;;;;;;;;;;13.16;65.70;102156.97;7403669;19;1229;-64
2022/12/28 04:12:36;;;;;;;;;;;;;;;13.22;65.86;102145.22;7404272;19;1010;-65
2022/12/28 04:15:04;;;;;;;;;;;;;;;13.22;65.65;102158.50;7402763;19;1842;-64
2022/12/28 04:17:33;;;;;;;;;;;;;;;13.20;65.59;102152.41;7402771;19;1021;-66
2022/12/28 04:20:01;;;;;;;;;;;;;;;13.16;65.72;102162.28;7403559;19;997;-64
2022/12/28 04:22:32;;;;;;;;;;;;;;;13.20;65.80;102163.03;7404823;19;1012;-64
2022/12/28 04:25:00;;;;;;;;;;;;;;;13.18;65.45;102159.56;7404170;19;997;-65
2022/12/28 04:27:29;;;;;;;;;;;;;;;13.20;65.35;102168.34;7404197;19;1013;-64
2022/12/28 04:29:57;;;;;;;;;;;;;;;13.22;65.38;102169.13;7403703;19;980;-65
2022/12/28 04:32:25;;;;;;;;;;;;;;;13.22;65.40;102174.44;7403653;19;968;-64
2022/12/28 04:34:53;;;;;;;;;;;;;;;13.16;65.71;102164.06;7403211;19;1864;-65
2022/12/28 04:37:22;;;;;;;;;;;;;;;13.18;65.83;102180.81;7403747;19;1001;-65
2022/12/28 04:39:53;;;;;;;;;;;;;;;13.26;65.52;102184.00;7403348;19;1013;-64
2022/12/28 04:42:21;;;;;;;;;;;;;;;13.15;65.51;102181.81;7403644;19;936;-64
2022/12/28 04:44:49;;;;;;;;;;;;;;;13.18;65.39;102180.81;7403053;19;1056;-64
2022/12/28 04:47:18;;;;;;;;;;;;;;;13.13;65.98;102189.84;7402932;19;1000;-65
2022/12/28 04:49:46;;;;;;;;;;;;;;;13.13;65.50;102184.53;7402992;19;997;-64
2022/12/28 04:52:14;;;;;;;;;;;;;;;13.16;65.62;102180.88;7402925;19;1079;-66
2022/12/28 04:54:43;;;;;;;;;;;;;;;13.18;65.68;102194.09;7402634;19;1839;-64
2022/12/28 04:57:14;;;;;;;;;;;;;;;13.22;65.31;102187.72;7402762;19;993;-65
2022/12/28 04:59:42;;;;;;;;;;;;;;;13.12;65.50;102192.53;7402985;19;994;-64
2022/12/28 05:02:10;;;;;;;;;;;;;;;13.13;65.80;102211.09;7401236;19;1405;-65
2022/12/28 05:04:39;;;;;;;;;;;;;;;13.16;65.63;102198.59;7402333;19;1004;-66
2022/12/28 05:07:07;;;;;;;;;;;;;;;13.13;65.35;102200.47;7402462;19;1056;-64
2022/12/28 05:09:35;;;;;;;;;;;;;;;13.08;65.68;102213.03;7402347;19;997;-66
2022/12/28 05:12:04;;;;;;;;;;;;;;;13.08;65.49;102207.72;7402184;19;1063;-64
2022/12/28 05:14:34;;;;;;;;;;;;;;;13.10;65.48;102195.25;7401934;19;1858;-64
2022/12/28 05:17:03;;;;;;;;;;;;;;;13.14;65.65;102202.16;7402518;19;983;-66
2022/12/28 05:19:31;;;;;;;;;;;;;;;13.11;65.42;102198.78;7402017;19;1075;-65
2022/12/28 05:21:59;;;;;;;;;;;;;;;13.13;65.46;102216.41;7402467;19;938;-66
2022/12/28 05:24:28;;;;;;;;;;;;;;;13.12;65.55;102213.78;7401944;19;1044;-64
2022/12/28 05:26:56;;;;;;;;;;;;;;;13.10;65.45;102205.88;7402359;19;931;-64
2022/12/28 05:29:24;;;;;;;;;;;;;;;13.13;65.66;102211.09;7401762;19;1008;-64
2022/12/28 05:31:55;;;;;;;;;;;;;;;13.18;65.61;102207.38;7402187;19;960;-66
2022/12/28 05:34:24;;;;;;;;;;;;;;;13.13;65.59;102205.78;7401840;19;1852;-66
2022/12/28 05:36:52;;;;;;;;;;;;;;;13.13;65.54;102213.75;7401706;19;1039;-65
2022/12/28 05:39:20;;;;;;;;;;;;;;;13.09;65.64;102217.44;7401561;19;1082;-66
2022/12/28 05:41:49;;;;;;;;;;;;;;;13.11;65.74;102212.94;7399999;19;1063;-64
2022/12/28 05:44:17;;;;;;;;;;;;;;;13.12;65.60;102209.34;7401379;19;1079;-64
2022/12/28 05:46:45;;;;;;;;;;;;;;;13.12;65.54;102209.34;7401319;19;1067;-64
2022/12/28 05:49:16;;;;;;;;;;;;;;;13.14;65.23;102190.69;7401247;19;1057;-64
2022/12/28 05:51:45;;;;;;;;;;;;;;;13.08;65.66;102210.38;7401604;19;903;-64
2022/12/28 05:54:13;;;;;;;;;;;;;;;13.11;65.62;102231.53;7400981;19;1083;-64
2022/12/28 05:56:41;;;;;;;;;;;;;;;13.10;65.50;102236.91;7399255;19;1842;-65
2022/12/28 05:59:10;;;;;;;;;;;;;;;13.13;65.63;102221.72;7401334;19;1008;-65
2022/12/28 06:01:39;;;;;;;;;;;;;;;13.11;65.49;102228.88;7400031;19;1307;-64
2022/12/28 06:04:09;;;;;;;;;;;;;;;13.07;65.38;102232.56;7401279;19;1016;-66
2022/12/28 06:06:40;;;;;;;;;;;;;;;13.10;65.68;102237.75;7401153;19;927;-64
2022/12/28 06:09:08;;;;;;;;;;;;;;;13.12;65.41;102235.91;7401202;19;975;-65
2022/12/28 06:11:37;;;;;;;;;;;;;;;13.11;65.23;102235.94;7400609;19;992;-64
2022/12/28 06:14:06;;;;;;;;;;;;;;;13.10;65.23;102242.19;7400994;19;949;-64
2022/12/28 06:16:35;;;;;;;;;;;;;;;13.08;65.40;102236.09;7398921;19;1851;-66
2022/12/28 06:19:05;;;;;;;;;;;;;;;13.09;65.36;102235.16;7400775;19;1027;-64
2022/12/28 06:21:35;;;;;;;;;;;;;;;13.12;65.33;102256.28;7400831;19;989;-65
2022/12/28 06:24:06;;;;;;;;;;;;;;;13.09;65.45;102243.13;7400215;19;1063;-65
2022/12/28 06:26:36;;;;;;;;;;;;;;;13.09;65.41;102256.41;7400249;19;996;-64
2022/12/28 06:29:04;;;;;;;;;;;;;;;13.05;65.44;102249.47;7400535;19;992;-65
2022/12/28 06:31:34;;;;;;;;;;;;;;;13.07;65.49;102250.28;7400126;19;985;-66
2022/12/28 06:34:03;;;;;;;;;;;;;;;13.10;65.45;102253.69;7399954;19;984;-65
2022/12/28 06:36:32;;;;;;;;;;;;;;;13.10;65.35;102259.00;7398280;19;1897;-64
2022/12/28 06:39:01;;;;;;;;;;;;;;;13.07;65.38;102259.13;7400414;19;964;-65
2022/12/28 06:41:32;;;;;;;;;;;;;;;13.12;65.50;102257.16;7400307;19;902;-64
2022/12/28 06:44:00;;;;;;;;;;;;;;;13.11;65.21;102260.75;7400206;19;927;-66
2022/12/28 06:46:29;;;;;;;;;;;;;;;13.17;64.93;102264.94;7399620;19;1071;-66
2022/12/28 06:48:58;;;;;;;;;;;;;;;13.19;65.03;102272.84;7399622;19;1036;-66
2022/12/28 06:51:27;;;;;;;;;;;;;;;13.10;65.31;102269.63;7399594;19;1018;-66
2022/12/28 06:53:56;;;;;;;;;;;;;;;13.08;65.31;102289.22;7404536;19;1033;-64
2022/12/28 06:56:26;;;;;;;;;;;;;;;13.12;65.45;102267.78;7404887;19;1850;-64
2022/12/28 06:58:57;;;;;;;;;;;;;;;13.12;65.36;102283.69;7407038;19;935;-64
2022/12/28 07:01:26;;;;;;;;;;;;;;;13.16;64.94;102291.56;7405300;19;1370;-65
2022/12/28 07:03:55;;;;;;;;;;;;;;;13.08;65.15;102278.59;7406906;19;946;-65
2022/12/28 07:06:25;;;;;;;;;;;;;;;13.08;65.32;102282.09;7406374;19;992;-65
2022/12/28 07:08:59;;;;;;;;;;;;;;;13.10;65.25;102295.31;7406830;19;993;-64
2022/12/28 07:11:27;;;;;;;;;;;;;;;13.12;65.21;102294.31;7406201;19;993;-65
2022/12/28 07:13:58;;;;;;;;;;;;;;;13.15;65.04;102301.34;7406182;19;1732;-65
2022/12/28 07:16:27;;;;;;;;;;;;;;;13.14;65.44;102296.94;7404970;19;1860;-64
2022/12/28 07:18:56;;;;;;;;;;;;;;;13.11;65.49;102282.00;7406347;19;1003;-65
2022/12/28 07:21:26;;;;;;;;;;;;;;;13.15;65.06;102298.69;7406419;19;950;-65
2022/12/28 07:23:55;;;;;;;;;;;;;;;13.11;65.15;102313.88;7406184;19;1017;-64
2022/12/28 07:26:25;;;;;;;;;;;;;;;13.11;65.20;102305.91;7405857;19;1020;-64
2022/12/28 07:28:54;;;;;;;;;;;;;;;13.10;65.17;102312.13;7405698;19;996;-64
2022/12/28 07:31:26;;;;;;;;;;;;;;;13.15;65.16;102319.94;7406173;19;986;-64
2022/12/28 07:33:55;;;;;;;;;;;;;;;13.17;65.17;102317.19;7405997;19;1018;-66
2022/12/28 07:36:24;;;;;;;;;;;;;;;13.18;64.87;102314.47;7403149;19;1847;-65
2022/12/28 07:38:53;;;;;;;;;;;;;;;13.18;65.36;102308.31;7405807;19;1186;-66
2022/12/28 07:41:22;;;;;;;;;;;;;;;13.18;65.27;102308.31;7405755;19;1005;-64
2022/12/28 07:43:50;;;;;;;;;;;;;;;13.18;65.23;102318.94;7405183;19;979;-65
2022/12/28 07:46:19;;;;;;;;;;;;;;;13.21;64.96;102311.72;7405114;19;1000;-66
2022/12/28 07:48:51;;;;;;;;;;;;;;;13.23;65.05;102303.66;7404915;19;1083;-65
2022/12/28 07:51:20;;;;;;;;;;;;;;;13.20;65.01;102302.00;7405337;19;979;-65
2022/12/28 07:53:50;;;;;;;;;;;;;;;13.20;65.10;102302.00;7404745;19;936;-66
2022/12/28 07:56:18;;;;;;;;;;;;;;;13.22;64.86;102312.56;7402878;19;1846;-65
2022/12/28 07:58:49;;;;;;;;;;;;;;;13.27;64.98;102305.28;7405021;19;957;-67
2022/12/28 08:01:18;;;;;;;;;;;;;;;13.27;64.66;102303.50;7403670;19;1360;-67
2022/12/28 08:03:47;;;;;;;;;;;;;;;13.28;64.86;102310.53;7403901;19;927;-67
2022/12/28 08:06:21;;;;;;;;;;;;;;;13.32;64.85;102306.84;7402173;19;1407;-65
2022/12/28 08:08:50;;;;;;;;;;;;;;;13.30;64.93;102300.75;7405272;19;930;-67
2022/12/28 08:11:20;;;;;;;;;;;;;;;13.34;64.67;102309.47;7404311;19;1815;-66
2022/12/28 08:13:49;;;;;;;;;;;;;;;13.33;64.66;102307.75;7405090;19;987;-65
2022/12/28 08:16:19;;;;;;;;;;;;;;;13.30;64.89;102299.88;7403678;19;1853;-67
2022/12/28 08:18:48;;;;;;;;;;;;;;;13.34;64.64;102288.22;7404411;19;990;-65
2022/12/28 08:21:19;;;;;;;;;;;;;;;13.40;64.70;102309.22;7404024;19;1079;-67
2022/12/28 08:23:48;;;;;;;;;;;;;;;13.42;64.44;102312.69;7404204;19;989;-67
2022/12/28 08:26:17;;;;;;;;;;;;;;;13.40;64.62;102305.69;7403943;19;996;-67
2022/12/28 08:28:46;;;;;;;;;;;;;;;13.38;64.64;102310.22;7403647;19;1227;-65
2022/12/28 08:31:15;;;;;;;;;;;;;;;13.43;64.08;102306.44;7403990;19;993;-67
2022/12/28 08:33:44;;;;;;;;;;;;;;;13.50;64.26;102305.25;7404477;19;1172;-67
2022/12/28 08:36:12;;;;;;;;;;;;;;;13.51;63.98;102299.03;7402673;19;1862;-65
2022/12/28 08:38:44;;;;;;;;;;;;;;;13.50;64.20;102299.94;7403223;19;985;-67
2022/12/28 08:41:14;;;;;;;;;;;;;;;13.43;64.40;102298.47;7403712;19;979;-66
2022/12/28 08:43:42;;;;;;;;;;;;;;;13.48;63.97;102300.94;7403576;19;926;-65
2022/12/28 08:46:13;;;;;;;;;;;;;;;13.55;64.07;102282.94;7403085;19;1055;-67
2022/12/28 08:48:42;;;;;;;;;;;;;;;13.61;63.64;102288.00;7402963;19;1032;-66
2022/12/28 08:51:11;;;;;;;;;;;;;;;13.61;63.87;102274.72;7402957;19;1292;-66
2022/12/28 08:53:40;;;;;;;;;;;;;;;13.57;64.11;102289.06;7402807;19;1095;-67
2022/12/28 08:56:12;;;;;;;;;;;;;;;13.53;64.17;102283.88;7402286;19;1851;-65
2022/12/28 08:58:41;;;;;;;;;;;;;;;13.59;64.04;102279.22;7402707;19;989;-65
2022/12/28 09:01:10;;;;;;;;;;;;;;;13.64;63.99;102277.25;7400799;19;1361;-65
2022/12/28 09:03:39;;;;;;;;;;;;;;;13.59;63.78;102265.94;7402456;19;992;-65
2022/12/28 09:06:08;;;;;;;;;;;;;;;13.57;63.64;102274.00;7403005;19;1005;-67
2022/12/28 09:08:36;;;;;;;;;;;;;;;13.53;64.13;102283.03;7402412;19;1000;-65
2022/12/28 09:11:06;;;;;;;;;;;;;;;13.49;64.06;102276.13;7400611;19;1822;-65
2022/12/28 09:13:38;;;;;;;;;;;;;;;13.54;63.84;102271.47;7402313;19;1066;-66
2022/12/28 09:16:07;;;;;;;;;;;;;;;13.62;63.68;102261.38;7400118;19;1864;-65
2022/12/28 09:18:36;;;;;;;;;;;;;;;13.65;63.75;102266.56;7402523;19;1026;-67
2022/12/28 09:21:08;;;;;;;;;;;;;;;13.66;63.89;102262.13;7400742;19;1473;-65
2022/12/28 09:23:36;;;;;;;;;;;;;;;13.66;64.03;102260.31;7401951;19;960;-67
2022/12/28 09:26:05;;;;;;;;;;;;;;;13.64;63.92;102254.19;7402421;19;914;-65
2022/12/28 09:28:34;;;;;;;;;;;;;;;13.57;63.73;102233.25;7402322;19;919;-66
2022/12/28 09:31:06;;;;;;;;;;;;;;;13.68;63.63;102241.66;7401771;19;1012;-66
2022/12/28 09:36:16;;;;;;;;;;;;;;;13.72;63.55;102227.28;7401864;19;1872;-67
2022/12/28 09:38:44;;;;;;;;;;;;;;;13.68;63.85;102246.97;7401585;19;1063;-65
2022/12/28 09:41:13;;;;;;;;;;;;;;;13.66;63.85;102227.56;7401896;19;991;-65
2022/12/28 09:43:43;;;;;;;;;;;;;;;13.64;64.02;102232.94;7401504;19;1019;-67
2022/12/28 09:46:16;;;;;;;;;;;;;;;13.69;63.73;102214.16;7401892;19;953;-65
2022/12/28 09:48:46;;;;;;;;;;;;;;;13.84;63.59;102217.94;7401300;19;929;-65
2022/12/28 09:51:14;;;;;;;;;;;;;;;13.80;63.68;102221.66;7401184;19;1012;-65
2022/12/28 09:53:42;;;;;;;;;;;;;;;13.79;63.71;102215.47;7401159;19;953;-67
2022/12/28 09:56:22;;;;;;;;;;;;;;;13.77;63.53;102212.03;7401240;19;1844;-65
2022/12/28 09:58:51;;;;;;;;;;;;;;;13.78;63.71;102215.53;7400941;19;989;-67
2022/12/28 10:01:23;;;;;;;;;;;;;;;13.72;63.60;102206.03;7399749;19;1412;-65
2022/12/28 10:03:51;;;;;;;;;;;;;;;13.86;63.38;102208.94;7400897;19;1065;-65
2022/12/28 10:06:23;;;;;;;;;;;;;;;13.96;63.28;102216.53;7400838;19;944;-65
2022/12/28 10:08:52;;;;;;;;;;;;;;;13.91;63.12;102209.63;7401203;19;939;-67
2022/12/28 10:11:22;;;;;;;;;;;;;;;13.88;63.18;102207.09;7400629;19;1052;-65
2022/12/28 10:13:53;;;;;;;;;;;;;;;13.85;63.42;102215.22;7400595;19;1337;-67
2022/12/28 10:16:26;;;;;;;;;;;;;;;13.84;63.67;102197.50;7400548;19;1861;-65
2022/12/28 10:18:54;;;;;;;;;;;;;;;13.82;63.57;102193.19;7400815;19;972;-67
2022/12/28 10:21:24;;;;;;;;;;;;;;;13.89;63.32;102203.50;7400492;19;957;-67
2022/12/28 10:23:55;;;;;;;;;;;;;;;14.02;63.28;102200.31;7400326;19;953;-66
2022/12/28 10:26:23;;;;;;;;;;;;;;;14.02;63.10;102200.31;7400402;19;1024;-65
2022/12/28 10:28:53;;;;;;;;;;;;;;;13.90;63.19;102207.88;7407832;19;1131;-65
2022/12/28 10:31:35;;;;;;;;;;;;;;;13.93;63.57;102199.78;7407657;19;989;-65
2022/12/28 10:34:03;;;;;;;;;;;;;;;13.89;63.34;102206.16;7407552;19;1266;-65
2022/12/28 10:36:35;;;;;;;;;;;;;;;13.89;63.54;102184.03;7407202;19;1856;-65
2022/12/28 10:39:04;;;;;;;;;;;;;;;14.00;63.40;102196.84;7407740;19;976;-65
2022/12/28 10:41:39;;;;;;;;;;;;;;;14.13;63.04;102188.25;7407320;19;1023;-66
2022/12/28 10:44:19;;;;;;;;;;;;;;;14.16;62.86;102183.72;7407275;19;1012;-66
2022/12/28 10:46:58;;;;;;;;;;;;;;;14.09;62.95;102183.16;7407082;19;941;-65
2022/12/28 10:49:28;;;;;;;;;;;;;;;14.01;63.16;102177.31;7407555;19;972;-65
2022/12/28 10:52:07;;;;;;;;;;;;;;;13.97;63.57;102186.34;7407527;19;997;-66
2022/12/28 10:54:36;;;;;;;;;;;;;;;13.98;63.79;102177.44;7404128;19;1456;-67
2022/12/28 10:57:05;;;;;;;;;;;;;;;14.05;63.19;102169.13;7406130;19;1873;-65
2022/12/28 10:59:34;;;;;;;;;;;;;;;14.19;62.81;102172.97;7406691;19;1020;-67
2022/12/28 11:02:17;;;;;;;;;;;;;;;14.13;63.08;102177.63;7405000;19;1309;-65
2022/12/28 11:04:56;;;;;;;;;;;;;;;14.09;63.23;102169.84;7406151;19;1118;-67
2022/12/28 11:07:28;;;;;;;;;;;;;;;14.05;63.24;102162.94;7406813;19;1006;-65
2022/12/28 11:10:15;;;;;;;;;;;;;;;14.04;63.35;102177.16;7406884;19;931;-66
2022/12/28 11:12:44;;;;;;;;;;;;;;;14.00;63.42;102171.09;7406715;19;944;-67
2022/12/28 11:15:15;;;;;;;;;;;;;;;14.03;63.55;102149.72;7406719;19;954;-65
2022/12/28 11:17:44;;;;;;;;;;;;;;;14.16;63.00;102123.41;7404386;19;1872;-67
2022/12/28 11:20:19;;;;;;;;;;;;;;;14.21;63.02;102145.34;7406521;19;935;-65
2022/12/28 11:22:48;;;;;;;;;;;;;;;14.16;63.09;102136.69;7406423;19;993;-65
2022/12/28 11:25:17;;;;;;;;;;;;;;;14.10;63.34;102131.66;7405901;19;956;-67
2022/12/28 11:27:46;;;;;;;;;;;;;;;14.06;63.17;102135.41;7405894;19;1063;-65
2022/12/28 11:30:15;;;;;;;;;;;;;;;14.04;63.33;102131.94;7406093;19;1006;-65
2022/12/28 11:32:47;;;;;;;;;;;;;;;14.03;63.32;102138.22;7405684;19;988;-66
2022/12/28 11:35:21;;;;;;;;;;;;;;;14.05;63.40;102131.88;7405449;19;1080;-65
2022/12/28 11:37:53;;;;;;;;;;;;;;;14.17;63.19;102127.78;7403926;19;1842;-65
2022/12/28 11:40:36;;;;;;;;;;;;;;;14.24;62.90;102113.25;7404135;19;956;-65
2022/12/28 11:43:05;;;;;;;;;;;;;;;14.16;63.01;102112.75;7405209;19;977;-65
2022/12/28 11:45:48;;;;;;;;;;;;;;;14.10;62.88;102136.97;7405671;19;999;-66
2022/12/28 11:48:31;;;;;;;;;;;;;;;14.09;63.03;102136.13;7405085;19;1083;-66
2022/12/28 11:51:07;;;;;;;;;;;;;;;14.04;63.28;102138.13;7405073;19;1005;-65
2022/12/28 11:53:50;;;;;;;;;;;;;;;14.06;63.35;102138.91;7404885;19;1056;-65
2022/12/28 11:56:20;;;;;;;;;;;;;;;14.15;63.39;102124.34;7404405;19;1000;-67
2022/12/28 11:59:02;;;;;;;;;;;;;;;14.27;63.17;102117.59;7403048;19;1871;-65
2022/12/28 12:01:46;;;;;;;;;;;;;;;14.21;62.95;102137.38;7403445;19;1343;-67
2022/12/28 12:04:28;;;;;;;;;;;;;;;14.17;63.07;102130.47;7404597;19;1113;-66
2022/12/28 12:07:11;;;;;;;;;;;;;;;14.13;62.96;102128.88;7404824;19;998;-65
2022/12/28 12:09:46;;;;;;;;;;;;;;;14.09;63.54;102122.81;7404529;19;1059;-65
2022/12/28 12:12:29;;;;;;;;;;;;;;;14.09;63.29;102116.66;7404685;19;983;-67
2022/12/28 12:14:59;;;;;;;;;;;;;;;14.13;63.70;102120.91;7404251;19;1051;-65
2022/12/28 12:17:34;;;;;;;;;;;;;;;14.25;63.05;102112.34;7403285;19;1850;-65
2022/12/28 12:20:04;;;;;;;;;;;;;;;14.35;63.07;102109.25;7404043;19;1063;-66
2022/12/28 12:22:34;;;;;;;;;;;;;;;14.20;63.21;102111.69;7403978;19;1056;-65
2022/12/28 12:25:09;;;;;;;;;;;;;;;14.14;62.93;102114.63;7404353;19;989;-65
2022/12/28 12:27:40;;;;;;;;;;;;;;;14.13;63.46;102112.91;7403824;19;988;-65
2022/12/28 12:30:15;;;;;;;;;;;;;;;14.10;63.52;102108.56;7403687;19;1064;-66
2022/12/28 12:32:46;;;;;;;;;;;;;;;14.07;63.65;102097.25;7403608;19;1076;-65
2022/12/28 12:35:16;;;;;;;;;;;;;;;14.10;63.57;102102.41;7401707;19;972;-66
2022/12/28 12:37:48;;;;;;;;;;;;;;;14.22;63.44;102090.31;7402863;19;1863;-65
2022/12/28 12:40:34;;;;;;;;;;;;;;;14.20;63.11;102100.19;7403814;19;1022;-65
2022/12/28 12:43:15;;;;;;;;;;;;;;;14.09;63.59;102085.59;7403624;19;1035;-66
2022/12/28 12:45:48;;;;;;;;;;;;;;;14.07;63.62;102095.44;7403193;19;1775;-67
2022/12/28 12:48:31;;;;;;;;;;;;;;;14.03;63.75;102093.84;7403452;19;972;-67
2022/12/28 12:51:06;;;;;;;;;;;;;;;13.99;63.93;102094.06;7403554;19;997;-65
2022/12/28 12:53:43;;;;;;;;;;;;;;;13.99;63.81;102110.03;7403294;19;1005;-65
2022/12/28 12:56:23;;;;;;;;;;;;;;;14.09;63.69;102098.03;7403439;19;1105;-65
2022/12/28 12:58:57;;;;;;;;;;;;;;;14.21;63.46;102092.13;7401655;19;1863;-66
2022/12/28 13:01:31;;;;;;;;;;;;;;;14.13;63.45;102102.28;7401656;19;1424;-66
2022/12/28 13:04:06;;;;;;;;;;;;;;;14.06;63.45;102107.00;7403090;19;997;-67
2022/12/28 13:06:38;;;;;;;;;;;;;;;14.04;63.71;102114.19;7402533;19;996;-65
2022/12/28 13:09:12;;;;;;;;;;;;;;;14.01;63.66;102118.81;7402990;19;1009;-65
2022/12/28 13:11:43;;;;;;;;;;;;;;;13.97;63.87;102103.91;7402825;19;927;-67
2022/12/28 13:14:18;;;;;;;;;;;;;;;13.98;64.07;102114.47;7402416;19;1035;-65
2022/12/28 13:16:48;;;;;;;;;;;;;;;14.11;63.71;102115.63;7402697;19;1009;-66
2022/12/28 13:19:22;;;;;;;;;;;;;;;14.18;63.43;102115.34;7400902;19;1038;-67
2022/12/28 13:21:51;;;;;;;;;;;;;;;14.04;63.72;102108.84;7402141;19;941;-65
2022/12/28 13:24:20;;;;;;;;;;;;;;;13.99;64.04;102108.22;7401944;19;1052;-65
2022/12/28 13:26:51;;;;;;;;;;;;;;;13.99;64.02;102123.31;7402056;19;956;-67
2022/12/28 13:29:21;;;;;;;;;;;;;;;13.88;64.28;102102.50;7402319;19;1001;-66
2022/12/28 13:31:51;;;;;;;;;;;;;;;13.90;64.28;102103.31;7402205;19;990;-66
2022/12/28 13:34:20;;;;;;;;;;;;;;;14.00;64.05;102109.09;7401781;19;1080;-65
2022/12/28 13:36:49;;;;;;;;;;;;;;;14.10;63.80;102099.75;7402045;19;930;-65
2022/12/28 13:39:19;;;;;;;;;;;;;;;14.03;63.81;102103.63;7399900;19;1858;-66